Data for 01/03/2008

Time Sea-Level Adjusted Pressure Absolute Pressure Temperature Relative Humidity Dew Point   
(mb) (inHg) (mb) (inHg) (C) (F) (%) (C) (F)
00:05 1015 29.97 844 24.92 -0.2 31.7 43 -11.2 11.9
00:10 1015 29.97 844 24.92 -0.5 31.1 45 -11 12.2
00:15 1015 29.97 844 24.92 -0.9 30.3 44 -11.8 10.8
00:20 1015 29.97 844 24.92 -1.1 30 48 -10.8 12.6
00:25 1015 29.97 844 24.92 -1.3 29.7 43 -12.3 9.8
00:30 1015 29.97 844 24.92 -1.2 29.8 47 -11.1 12
00:35 1015 29.97 844 24.92 -1.7 29 52 -10.4 13.3
00:40 1015 29.97 844 24.92 -1.8 28.7 49 -11.3 11.6
00:45 1015 29.97 844 24.92 -1.5 29.3 49 -10.9 12.3
00:50 1015 29.97 844 24.92 -1.6 29.2 51 -10.5 13.1
00:55 1015 29.97 844 24.92 -1.5 29.4 50 -10.5 13
01:00 1015 29.97 844 24.92 -1.7 29 43 -12.6 9.4
01:05 1014 29.94 844 24.92 -0.8 30.6 44 -11.5 11.2
01:10 1014 29.94 844 24.92 -1.1 30.1 44 -12 10.5
01:15 1014 29.94 843 24.89 -1.1 30.1 47 -10.9 12.4
01:20 1014 29.94 843 24.89 -1.6 29.1 48 -11.4 11.5
01:25 1014 29.94 843 24.89 -1.9 28.5 52 -10.6 12.9
01:30 1014 29.94 843 24.89 -2.4 27.6 47 -12.2 10
01:35 1014 29.94 843 24.89 -1.8 28.8 44 -12.5 9.6
01:40 1014 29.94 843 24.89 -0.8 30.5 42 -12.3 9.9
01:45 1014 29.94 843 24.89 -0.7 30.7 43 -11.9 10.6
01:50 1014 29.94 843 24.89 -1.1 30.1 44 -11.7 10.9
01:55 1014 29.94 843 24.89 -1.5 29.3 48 -11.1 12.1
02:00 1014 29.94 843 24.89 -1.8 28.7 48 -11.4 11.5
02:05 1014 29.94 843 24.89 -1.9 28.6 47 -11.6 11.1
02:10 1014 29.94 843 24.89 -1.9 28.6 45 -12.5 9.6
02:15 1014 29.94 843 24.89 -1.7 29 46 -11.8 10.8
02:20 1014 29.94 843 24.89 -1.7 28.9 46 -12 10.4
02:25 1014 29.94 843 24.89 -1.3 29.6 42 -12.6 9.3
02:30 1014 29.94 843 24.89 -1 30.3 41 -12.6 9.2
02:35 1014 29.94 843 24.89 -0.9 30.4 47 -10.8 12.6
02:40 1014 29.94 843 24.89 -1.6 29.1 48 -11.3 11.7
02:45 1014 29.94 843 24.89 -1.9 28.5 46 -12 10.5
02:50 1014 29.94 843 24.89 -1.5 29.3 41 -13.1 8.5
02:55 1014 29.94 843 24.89 -0.5 31.1 41 -12.1 10.2
03:00 1014 29.94 843 24.89 -0.5 31 38 -13.4 8
03:05 1014 29.94 843 24.89 -0.3 31.5 36 -13.5 7.6
03:10 1014 29.94 843 24.89 -0.2 31.7 36 -13.4 7.9
03:15 1014 29.94 843 24.89 -0.3 31.4 40 -12.3 9.9
03:20 1014 29.94 844 24.92 -0.6 30.9 43 -11.7 10.9
03:25 1014 29.94 843 24.89 -1.4 29.5 43 -12.5 9.4
03:30 1014 29.94 843 24.89 -1.3 29.7 42 -12.5 9.4
03:35 1014 29.94 844 24.92 -1.3 29.6 45 -11.8 10.8
03:40 1014 29.94 844 24.92 -1.6 29.2 49 -11 12.2
03:45 1014 29.94 844 24.92 -2.3 27.8 45 -12.7 9.2
03:50 1014 29.94 844 24.92 -1.9 28.6 50 -11.1 12.1
03:55 1014 29.94 844 24.92 -2.1 28.3 46 -12.2 10
04:00 1014 29.94 844 24.92 -2.4 27.6 49 -11.8 10.7
04:05 1014 29.94 844 24.92 -2.2 28 47 -12 10.5
04:10 1014 29.94 844 24.92 -2.5 27.4 48 -12 10.3
04:15 1014 29.94 844 24.92 -2.5 27.5 47 -12.5 9.6
04:20 1014 29.94 844 24.92 -2.2 28 49 -11.7 11
04:25 1014 29.94 843 24.89 -2.8 26.9 49 -12.2 10
04:30 1014 29.94 843 24.89 -2.6 27.3 50 -11.8 10.8
04:35 1014 29.94 843 24.89 -2.8 27 49 -12.1 10.3
04:40 1014 29.94 843 24.89 -2.7 27.1 47 -12.4 9.6
04:45 1014 29.94 843 24.89 -2.1 28.2 45 -12.6 9.4
04:50 1014 29.94 843 24.89 -1.7 28.9 45 -12.1 10.1
04:55 1014 29.94 843 24.89 -1.9 28.6 46 -12.1 10.1
05:00 1014 29.94 843 24.89 -2.4 27.7 49 -11.8 10.7
05:05 1014 29.94 843 24.89 -2.8 26.9 49 -12.1 10.1
05:10 1014 29.94 843 24.89 -2.9 26.7 47 -12.7 9.2
05:15 1014 29.94 843 24.89 -3 26.6 46 -13.1 8.5
05:20 1014 29.94 843 24.89 -2.9 26.8 49 -12.3 9.9
05:25 1014 29.94 843 24.89 -2.8 26.9 48 -12.3 9.9
05:30 1014 29.94 843 24.89 -2.6 27.2 44 -13.2 8.2
05:35 1014 29.94 843 24.89 -2.6 27.3 45 -13.1 8.4
05:40 1014 29.94 843 24.89 -2.2 28.1 45 -12.5 9.6
05:45 1014 29.94 843 24.89 -2.7 27.1 47 -12.6 9.3
05:50 1014 29.94 843 24.89 -2.9 26.8 44 -13.4 7.9
05:55 1014 29.94 843 24.89 -2.1 28.3 44 -12.9 8.8
06:00 1014 29.94 843 24.89 -2 28.5 46 -12 10.4
06:05 1014 29.94 843 24.89 -1.8 28.7 43 -12.7 9.1
06:10 1014 29.94 843 24.89 -1.8 28.7 42 -13.2 8.2
06:15 1014 29.94 843 24.89 -1.5 29.3 43 -12.6 9.3
06:20 1014 29.94 843 24.89 -1.6 29.2 40 -13.4 7.9
06:25 1014 29.94 843 24.89 -1.2 29.9 38 -13.7 7.3
06:30 1014 29.94 843 24.89 -0.8 30.6 38 -13.4 7.8
06:35 1014 29.94 843 24.89 -1.2 29.9 43 -12.3 9.8
06:40 1014 29.94 843 24.89 -1.4 29.5 46 -11.6 11.2
06:45 1014 29.94 843 24.89 -1.8 28.8 49 -11.1 12.1
06:50 1014 29.94 843 24.89 -2.5 27.5 50 -11.4 11.4
06:55 1014 29.94 843 24.89 -2.9 26.8 47 -12.6 9.4
07:00 1014 29.94 843 24.89 -2.4 27.7 42 -13.6 7.6
07:05 1014 29.94 843 24.89 -1.5 29.2 40 -13.5 7.6
07:10 1014 29.94 843 24.89 -1.5 29.3 40 -13.3 8.1
07:15 1014 29.94 843 24.89 -1.7 29 40 -13.6 7.4
07:20 1014 29.94 843 24.89 -1 30.1 38 -13.8 7.2
07:25 1014 29.94 843 24.89 -0.5 31.1 36 -13.9 7
07:30 1014 29.94 843 24.89 -0.2 31.6 35 -13.8 7.2
07:35 1014 29.94 843 24.89 0.1 32.1 35 -13.7 7.3
07:40 1014 29.94 843 24.89 0.5 33 34 -13.8 7.2
07:45 1014 29.94 843 24.89 1 33.8 33 -13.7 7.4
07:50 1014 29.94 843 24.89 0.9 33.7 33 -13.6 7.5
07:55 1014 29.94 843 24.89 0.3 32.5 36 -13.2 8.2
08:00 1014 29.94 843 24.89 -0.3 31.5 38 -13.1 8.4
08:05 1014 29.94 843 24.89 -0.8 30.5 43 -11.8 10.8
08:10 1014 29.94 843 24.89 -1.2 29.9 44 -12 10.4
08:15 1014 29.94 843 24.89 -1.2 29.9 45 -11.7 10.9
08:20 1014 29.94 843 24.89 -1.5 29.3 43 -12.5 9.5
08:25 1014 29.94 843 24.89 -1.5 29.2 45 -11.9 10.7
08:30 1014 29.94 843 24.89 -2 28.5 46 -12.1 10.2
08:35 1014 29.94 843 24.89 -2 28.4 43 -13 8.6
08:40 1014 29.94 843 24.89 -1.1 30 39 -13.5 7.7
08:45 1014 29.94 843 24.89 -0.5 31 37 -13.7 7.4
08:50 1014 29.94 843 24.89 -0.1 31.9 42 -11.6 11.1
08:55 1013 29.91 843 24.89 -0.3 31.5 41 -12.1 10.2
09:00 1013 29.91 843 24.89 -0.5 31.1 42 -12 10.4
09:05 1013 29.91 843 24.89 -0.8 30.5 40 -12.7 9.2
09:10 1013 29.91 843 24.89 -0.9 30.4 39 -13.3 8.1
09:15 1013 29.91 843 24.89 -0.8 30.6 39 -13 8.6
09:20 1013 29.91 843 24.89 -0.8 30.5 39 -13 8.5
09:25 1013 29.91 843 24.89 -1 30.2 40 -13.1 8.4
09:30 1013 29.91 842 24.86 -1 30.3 38 -13.6 7.6
09:35 1013 29.91 842 24.86 -0.8 30.6 42 -12.2 10
09:40 1013 29.91 842 24.86 -1.1 30 44 -12 10.5
09:45 1013 29.91 843 24.89 -1.3 29.6 47 -11.1 12
09:50 1013 29.91 843 24.89 -1.4 29.4 44 -12.1 10.3
09:55 1013 29.91 843 24.89 -1 30.1 46 -11.4 11.6
10:00 1013 29.91 843 24.89 -0.7 30.8 40 -12.6 9.3
10:05 1013 29.91 842 24.86 -0 31.9 43 -11.1 12
10:10 1013 29.91 842 24.86 -0.2 31.6 46 -10.5 13.1
10:15 1013 29.91 842 24.86 -0 31.9 41 -11.7 11
10:20 1013 29.91 842 24.86 0.1 32.2 47 -10 14
10:25 1013 29.91 842 24.86 -0.1 31.8 46 -10.4 13.3
10:30 1013 29.91 842 24.86 -0.2 31.6 45 -10.9 12.4
10:35 1013 29.91 842 24.86 0.4 32.8 40 -11.5 11.2
10:40 1013 29.91 842 24.86 1 33.8 39 -11.5 11.3
10:45 1013 29.91 842 24.86 1.1 33.9 40 -11 12.3
10:50 1013 29.91 842 24.86 1.3 34.3 39 -11.2 11.9
10:55 1013 29.91 842 24.86 1.6 34.9 36 -12 10.4
11:00 1013 29.91 842 24.86 2.5 36.5 35 -11.4 11.4
11:05 1013 29.91 842 24.86 3 37.4 35 -11.1 12
11:10 1013 29.91 842 24.86 3.3 37.9 32 -12.1 10.3
11:15 1013 29.91 842 24.86 3.5 38.3 32 -11.6 11.1
11:20 1013 29.91 842 24.86 4 39.1 32 -11.2 11.8
11:25 1013 29.91 842 24.86 3.9 39 32 -11.6 11.2
11:30 1012 29.88 842 24.86 3.5 38.2 30 -12.4 9.6
11:35 1012 29.88 842 24.86 3.6 38.4 33 -11.3 11.6
11:40 1012 29.88 842 24.86 3.7 38.6 33 -11 12.1
11:45 1012 29.88 842 24.86 3.6 38.4 34 -11 12.2
11:50 1012 29.88 841 24.83 3.9 39 32 -11.2 11.9
11:55 1012 29.88 841 24.83 4.7 40.4 30 -11.7 11
12:00 1012 29.88 841 24.83 5.2 41.4 31 -10.7 12.8
12:05 1012 29.88 841 24.83 4.7 40.4 33 -10.4 13.4
12:10 1012 29.88 841 24.83 3.4 38.1 35 -10.8 12.5
12:15 1012 29.88 841 24.83 2.7 36.9 34 -11.6 11.2
12:20 1012 29.88 841 24.83 2.5 36.4 34 -11.8 10.8
12:25 1011 29.85 841 24.83 1.9 35.5 39 -10.8 12.6
12:30 1011 29.85 841 24.83 1.5 34.8 40 -10.7 12.7
12:35 1011 29.85 841 24.83 1.3 34.4 38 -11.6 11.1
12:40 1011 29.85 841 24.83 1.2 34.2 41 -10.6 12.9
12:45 1011 29.85 840 24.81 0.8 33.5 40 -11.4 11.5
12:50 1011 29.85 840 24.81 1.5 34.7 36 -12.1 10.3
12:55 1011 29.85 840 24.81 2.1 35.8 37 -11.3 11.7
13:00 1011 29.85 840 24.81 2.4 36.3 35 -11.5 11.3
13:05 1011 29.85 840 24.81 2.2 36 38 -10.6 13
13:10 1011 29.85 840 24.81 2.4 36.3 39 -10.4 13.4
13:15 1011 29.85 840 24.81 2.8 37.1 40 -9.4 15.1
13:20 1011 29.85 840 24.81 3 37.4 39 -9.8 14.4
13:25 1011 29.85 840 24.81 3 37.5 39 -9.6 14.7
13:30 1011 29.85 840 24.81 2.7 36.9 40 -9.7 14.5
13:35 1011 29.85 840 24.81 2.6 36.7 39 -9.9 14.1
13:40 1011 29.85 840 24.81 2.7 36.8 40 -9.6 14.6
13:45 1011 29.85 840 24.81 2.2 35.9 40 -10.1 13.9
13:50 1011 29.85 840 24.81 2 35.6 41 -9.9 14.1
13:55 1011 29.85 840 24.81 1.8 35.2 43 -9.6 14.8
14:00 1011 29.85 840 24.81 2.1 35.8 41 -9.7 14.6
14:05 1010 29.83 840 24.81 2 35.5 40 -10.4 13.3
14:10 1010 29.83 840 24.81 1.9 35.4 40 -10.4 13.3
14:15 1010 29.83 840 24.81 2 35.6 40 -10.3 13.5
14:20 1010 29.83 840 24.81 2.2 36 40 -10.2 13.7
14:25 1010 29.83 839 24.78 3 37.3 38 -9.9 14.2
14:30 1010 29.83 839 24.78 3.8 38.8 37 -9.6 14.6
14:35 1010 29.83 839 24.78 4.5 40.1 32 -10.7 12.7
14:40 1010 29.83 839 24.78 5.6 42 29 -11.2 11.9
14:45 1010 29.83 839 24.78 6.6 43.9 28 -10.8 12.6
14:50 1010 29.83 839 24.78 7.2 44.9 27 -10.7 12.8
14:55 1010 29.83 839 24.78 7.2 45 27 -10.4 13.2
15:00 1010 29.83 839 24.78 7.2 44.9 27 -10.7 12.7
15:05 1010 29.83 839 24.78 7.6 45.6 25 -11.1 12
15:10 1010 29.83 839 24.78 7.8 46.1 26 -10.5 13.2
15:15 1010 29.83 839 24.78 7.7 45.8 26 -10.8 12.6
15:20 1010 29.83 839 24.78 7.5 45.5 27 -10.3 13.5
15:25 1010 29.83 839 24.78 7.4 45.3 26 -10.9 12.4
15:30 1010 29.83 839 24.78 7.6 45.6 24 -11.7 10.9
15:35 1010 29.83 839 24.78 8 46.4 23 -12 10.4
15:40 1010 29.83 839 24.78 7.9 46.2 24 -11.5 11.3
15:45 1010 29.83 839 24.78 6.9 44.4 24 -12.3 9.8
15:50 1010 29.83 839 24.78 6.6 43.9 25 -12.3 9.8
15:55 1010 29.83 839 24.78 6.9 44.4 26 -11.5 11.3
16:00 1010 29.83 839 24.78 7 44.6 24 -12.2 10
16:05 1010 29.83 839 24.78 7 44.7 26 -11.1 12
16:10 1010 29.83 839 24.78 7 44.5 27 -10.9 12.3
16:15 1010 29.83 839 24.78 6.5 43.7 27 -11.4 11.5
16:20 1010 29.83 839 24.78 5.8 42.4 30 -10.7 12.7
16:25 1010 29.83 839 24.78 4.8 40.6 31 -10.8 12.5
16:30 1010 29.83 839 24.78 4.1 39.3 30 -11.8 10.7
16:35 1010 29.83 839 24.78 4 39.3 33 -10.7 12.8
16:40 1010 29.83 839 24.78 3.8 38.9 33 -11.2 11.9
16:45 1010 29.83 839 24.78 3.7 38.6 36 -10.2 13.7
16:50 1009 29.8 839 24.78 3.6 38.4 30 -12.5 9.5
16:55 1009 29.8 839 24.78 4.1 39.3 33 -11 12.2
17:00 1009 29.8 839 24.78 3.8 38.9 30 -12 10.3
17:05 1009 29.8 839 24.78 3.8 38.8 30 -12.1 10.2
17:10 1009 29.8 838 24.75 3.8 38.8 33 -11.2 11.8
17:15 1009 29.8 838 24.75 3.6 38.5 30 -12.6 9.3
17:20 1009 29.8 838 24.75 4.3 39.8 28 -12.4 9.6
17:25 1009 29.8 838 24.75 4.5 40.1 30 -11.5 11.4
17:30 1009 29.8 838 24.75 4.3 39.8 31 -11.4 11.5
17:35 1009 29.8 838 24.75 4.3 39.8 33 -10.7 12.8
17:40 1009 29.8 838 24.75 4.5 40.1 30 -11.7 11
17:45 1009 29.8 838 24.75 5.2 41.3 28 -11.7 10.9
17:50 1009 29.8 838 24.75 5.3 41.6 30 -10.8 12.6
17:55 1009 29.8 838 24.75 5.5 41.9 28 -11.9 10.6
18:00 1009 29.8 838 24.75 6 42.8 27 -11.4 11.4
18:05 1009 29.8 838 24.75 6 42.7 27 -11.5 11.2
18:10 1009 29.8 838 24.75 6.2 43.1 27 -11.6 11.1
18:15 1009 29.8 838 24.75 6.2 43.1 28 -10.9 12.4
18:20 1009 29.8 838 24.75 6.5 43.8 28 -10.7 12.7
18:25 1009 29.8 838 24.75 6.7 44.1 29 -10.2 13.6
18:30 1009 29.8 838 24.75 6.3 43.3 28 -10.9 12.4
18:35 1009 29.8 838 24.75 6.5 43.6 27 -11.2 11.8
18:40 1009 29.8 838 24.75 6.8 44.2 27 -11.1 12.1
18:45 1009 29.8 838 24.75 7.1 44.9 25 -11.6 11.2
18:50 1009 29.8 838 24.75 7.3 45.1 27 -10.8 12.6
18:55 1009 29.8 838 24.75 7.1 44.9 25 -11.5 11.3
19:00 1009 29.8 838 24.75 7.5 45.4 24 -11.8 10.8
19:05 1009 29.8 838 24.75 7.3 45.2 25 -11.5 11.3
19:10 1009 29.8 838 24.75 7.3 45.1 26 -11.2 11.8
19:15 1009 29.8 838 24.75 7.5 45.4 26 -10.9 12.4
19:20 1009 29.8 838 24.75 7.2 44.9 26 -11 12.2
19:25 1009 29.8 838 24.75 7.4 45.3 25 -11.5 11.3
19:30 1009 29.8 838 24.75 7.4 45.2 26 -11.1 12.1
19:35 1008 29.77 838 24.75 7.2 45 25 -11.3 11.7
19:40 1008 29.77 838 24.75 7.1 44.7 26 -11.1 12
19:45 1008 29.77 838 24.75 7.3 45.2 25 -11.3 11.6
19:50 1008 29.77 838 24.75 7.1 44.8 26 -11.3 11.7
19:55 1008 29.77 837 24.72 7.2 44.9 26 -11 12.3
20:00 1008 29.77 837 24.72 7.1 44.7 26 -11.4 11.4
20:05 1008 29.77 837 24.72 6.9 44.5 26 -11.4 11.4
20:10 1008 29.77 837 24.72 6.8 44.3 27 -11.1 12
20:15 1008 29.77 837 24.72 6.4 43.5 28 -10.7 12.8
20:20 1008 29.77 837 24.72 5.6 42.1 30 -10.6 12.9
20:25 1008 29.77 837 24.72 5.6 42.1 29 -11.3 11.6
20:30 1008 29.77 837 24.72 5.9 42.7 31 -9.9 14.1
20:35 1008 29.77 837 24.72 6.4 43.5 27 -11.3 11.6
20:40 1008 29.77 837 24.72 7.1 44.7 26 -11.2 11.8
20:45 1008 29.77 837 24.72 7.3 45.1 26 -10.8 12.6
20:50 1007 29.74 837 24.72 6.5 43.6 30 -9.9 14.2
20:55 1007 29.74 837 24.72 4.2 39.6 33 -10.7 12.7
21:00 1007 29.74 836 24.69 3.1 37.6 34 -11.2 11.9
21:05 1007 29.74 836 24.69 2.7 36.8 35 -11.3 11.6
21:10 1007 29.74 836 24.69 2.4 36.4 36 -11.3 11.6
21:15 1007 29.74 836 24.69 2.3 36.1 36 -11.4 11.5
21:20 1007 29.74 836 24.69 2.2 36 36 -11.5 11.3
21:25 1007 29.74 836 24.69 2.3 36.2 36 -11.4 11.4
21:30 1007 29.74 836 24.69 2.3 36.2 35 -11.7 11
21:35 1007 29.74 836 24.69 2.6 36.7 34 -11.8 10.8
21:40 1006 29.71 836 24.69 3.2 37.7 32 -11.8 10.7
21:45 1006 29.71 836 24.69 3.8 38.9 31 -11.9 10.6
21:50 1006 29.71 836 24.69 5.3 41.5 29 -11.3 11.6
21:55 1006 29.71 835 24.66 5.7 42.2 29 -11.2 11.8
22:00 1006 29.71 836 24.69 6.8 44.3 27 -10.9 12.4
22:05 1006 29.71 836 24.69 7 44.7 27 -10.6 12.9
22:10 1007 29.74 836 24.69 6.8 44.3 29 -10.2 13.7
22:15 1007 29.74 836 24.69 6.6 43.9 28 -10.7 12.7
22:20 1007 29.74 836 24.69 6.6 43.8 29 -10.4 13.3
22:25 1007 29.74 836 24.69 5.8 42.5 31 -9.8 14.3
22:30 1007 29.74 836 24.69 4.8 40.7 32 -10.4 13.3
22:35 1007 29.74 836 24.69 4 39.2 34 -10.7 12.8
22:40 1007 29.74 836 24.69 3.2 37.8 36 -10.5 13.2
22:45 1007 29.74 836 24.69 2.8 37 36 -10.7 12.8
22:50 1007 29.74 836 24.69 2.5 36.5 38 -10.5 13.1
22:55 1007 29.74 836 24.69 3.1 37.5 36 -10.5 13.1
23:00 1007 29.74 836 24.69 3.3 38 38 -9.8 14.3
23:05 1007 29.74 836 24.69 3.2 37.8 36 -10.5 13
23:10 1007 29.74 836 24.69 3.8 38.9 35 -10.3 13.4
23:15 1007 29.74 836 24.69 3.7 38.7 34 -10.6 12.9
23:20 1007 29.74 836 24.69 4.5 40.1 33 -10.3 13.4
23:25 1007 29.74 836 24.69 5.2 41.4 33 -9.8 14.4
23:30 1007 29.74 836 24.69 5.2 41.3 32 -10.1 13.9
23:35 1007 29.74 836 24.69 4.7 40.5 34 -9.8 14.3
23:40 1007 29.74 836 24.69 4.4 39.9 31 -11.2 11.9
23:45 1007 29.74 836 24.69 5.4 41.7 32 -10.1 13.7
23:50 1007 29.74 836 24.69 4.8 40.6 34 -9.7 14.6
23:55 1007 29.74 836 24.69 3.8 38.8 36 -9.8 14.3
24:00 1007 29.74 836 24.69 3.6 38.4 36 -10.2 13.7